Weather at Seligman Airport

Public forecast

Using degrees Fahrenheit for public forecast. Weather courtesy of forecast.io.

Closest aviation weather report (METAR) to Seligman Airport

Closest report is H.A. Clark Memorial Field, 34.0 nm (63.0 km) E. Retrieved 2021/06/23 01:35 UTC (23 minutes ago):

KCMR 230135Z AUTO 28012KT 10SM BKN110 27/M02 A3020 RMK AO2

Closest aviation forecast (TAF) to Seligman Airport

Closest forecast is Prescott International Airport - Ernest A. Love Field, 46.9 nm (86.8 km) SSE. Retrieved 2021-06-23 00:22 UTC (2 hours ago):

TAF KPRC 222320Z 2300/2324 25010G16KT P6SM BKN150 FM230400 20007KT P6SM OVC110 FM231200 VRB06KT P6SM VCSH BKN090 FM231800 23010G16KT P6SM -SHRA BKN080 PROB30 2320/2324 5SM TS BR OVC050CB